createdAt,value
2022-12-03T00:02:07.829Z,5.27
2022-12-03T00:04:35.198Z,5.23
2022-12-03T00:07:02.115Z,5.21
2022-12-03T00:09:29.383Z,5.22
2022-12-03T00:11:56.497Z,5.23
2022-12-03T00:14:23.764Z,5.28
2022-12-03T00:16:50.727Z,5.29
2022-12-03T00:19:19.297Z,5.35
2022-12-03T00:21:46.181Z,5.34
2022-12-03T00:24:13.692Z,5.20
2022-12-03T00:26:40.618Z,5.09
2022-12-03T00:29:07.806Z,5.08
2022-12-03T00:31:34.804Z,5.10
2022-12-03T00:34:02.172Z,5.13
2022-12-03T00:36:30.479Z,5.15
2022-12-03T00:38:57.756Z,5.15
2022-12-03T00:41:24.722Z,5.11
2022-12-03T00:43:52.136Z,5.04
2022-12-03T00:46:21.585Z,5.05
2022-12-03T00:48:48.983Z,5.08
2022-12-03T00:51:15.929Z,5.10
2022-12-03T00:53:44.898Z,5.10
2022-12-03T00:56:11.847Z,5.11
2022-12-03T00:58:39.111Z,5.13
2022-12-03T01:01:06.100Z,5.17
2022-12-03T01:03:33.468Z,5.20
2022-12-03T01:06:00.439Z,5.18
2022-12-03T01:08:27.613Z,5.20
2022-12-03T01:10:56.263Z,5.17
2022-12-03T01:13:23.720Z,5.17
2022-12-03T01:15:50.738Z,5.16
2022-12-03T01:18:18.104Z,5.14
2022-12-03T01:20:45.360Z,5.11
2022-12-03T01:23:12.637Z,5.10
2022-12-03T01:25:39.519Z,5.06
2022-12-03T01:28:08.053Z,5.07
2022-12-03T01:30:54.864Z,5.07
2022-12-03T01:33:22.134Z,5.06
2022-12-03T01:35:49.191Z,5.08
2022-12-03T01:38:16.484Z,5.07
2022-12-03T01:40:43.424Z,5.06
2022-12-03T01:43:12.108Z,5.00
2022-12-03T01:45:39.019Z,4.92
2022-12-03T01:48:06.622Z,4.93
2022-12-03T01:50:33.991Z,4.91
2022-12-03T01:53:03.040Z,4.91
2022-12-03T01:55:30.354Z,4.83
2022-12-03T01:58:00.788Z,4.79
2022-12-03T02:00:30.410Z,4.76
2022-12-03T02:02:59.886Z,4.75
2022-12-03T02:05:27.651Z,4.73
2022-12-03T02:07:55.234Z,4.69
2022-12-03T02:10:27.071Z,4.64
2022-12-03T02:12:57.847Z,4.61
2022-12-03T02:15:25.046Z,4.63
2022-12-03T02:17:53.921Z,4.65
2022-12-03T02:20:21.213Z,4.65
2022-12-03T02:22:57.539Z,4.63
2022-12-03T02:25:31.862Z,4.68
2022-12-03T02:28:00.733Z,4.68
2022-12-03T02:30:30.111Z,4.68
2022-12-03T02:32:58.391Z,4.67
2022-12-03T02:35:27.820Z,4.69
2022-12-03T02:37:59.309Z,4.66
2022-12-03T02:40:31.080Z,4.71
2022-12-03T02:43:01.169Z,4.69
2022-12-03T02:45:31.170Z,4.68
2022-12-03T02:48:00.918Z,4.68
2022-12-03T02:50:31.099Z,4.64
2022-12-03T02:53:00.845Z,4.60
2022-12-03T02:55:36.491Z,4.59
2022-12-03T02:58:05.533Z,4.61
2022-12-03T03:00:33.075Z,4.65
2022-12-03T03:03:01.241Z,4.65
2022-12-03T03:05:28.594Z,4.60
2022-12-03T03:07:58.974Z,4.53
2022-12-03T03:10:26.759Z,4.53
2022-12-03T03:12:56.494Z,4.54
2022-12-03T03:15:25.188Z,4.52
2022-12-03T03:17:52.508Z,4.54
2022-12-03T03:20:20.071Z,4.53
2022-12-03T03:22:47.324Z,4.50
2022-12-03T03:25:18.634Z,4.50
2022-12-03T03:27:45.954Z,4.51
2022-12-03T03:30:14.914Z,4.50
2022-12-03T03:32:42.778Z,4.42
2022-12-03T03:35:11.064Z,4.40
2022-12-03T03:37:39.160Z,4.44
2022-12-03T03:40:07.902Z,4.41
2022-12-03T03:42:36.229Z,4.37
2022-12-03T03:45:03.548Z,4.40
2022-12-03T03:47:32.390Z,4.42
2022-12-03T03:49:59.447Z,4.48
2022-12-03T03:52:26.768Z,4.52
2022-12-03T03:54:53.966Z,4.54
2022-12-03T03:57:21.366Z,4.56
2022-12-03T03:59:48.260Z,4.51
2022-12-03T04:02:18.967Z,4.49
2022-12-03T04:04:48.504Z,4.45
2022-12-03T04:07:16.127Z,4.28
2022-12-03T04:09:43.135Z,4.31
2022-12-03T04:12:30.395Z,4.30
2022-12-03T04:14:57.705Z,4.26
2022-12-03T04:17:25.053Z,4.22
2022-12-03T04:19:53.357Z,4.18
2022-12-03T04:22:38.949Z,4.12
2022-12-03T04:25:25.647Z,4.12
2022-12-03T04:28:11.675Z,4.16
2022-12-03T04:30:38.835Z,4.17
2022-12-03T04:33:24.685Z,4.17
2022-12-03T04:35:53.041Z,4.14
2022-12-03T04:38:20.183Z,4.18
2022-12-03T04:41:03.762Z,4.17
2022-12-03T04:43:32.791Z,4.06
2022-12-03T04:46:00.631Z,4.04
2022-12-03T04:48:27.920Z,4.05
2022-12-03T04:50:56.266Z,4.04
2022-12-03T04:53:23.575Z,4.03
2022-12-03T04:55:50.431Z,4.04
2022-12-03T04:58:17.561Z,4.04
2022-12-03T05:00:44.459Z,3.98
2022-12-03T05:03:11.852Z,3.93
2022-12-03T05:05:38.698Z,3.93
2022-12-03T05:08:08.306Z,3.89
2022-12-03T05:10:35.283Z,3.88
2022-12-03T05:13:02.499Z,3.89
2022-12-03T05:15:29.572Z,3.84
2022-12-03T05:17:56.724Z,3.80
2022-12-03T05:20:41.576Z,3.81
2022-12-03T05:23:11.353Z,3.84
2022-12-03T05:25:38.523Z,3.89
2022-12-03T05:28:06.208Z,3.97
2022-12-03T05:30:33.834Z,3.87
2022-12-03T05:33:01.349Z,3.93
2022-12-03T05:35:28.333Z,3.90
2022-12-03T05:37:55.504Z,3.92
2022-12-03T05:40:24.204Z,3.94
2022-12-03T05:42:54.602Z,3.93
2022-12-03T05:45:22.408Z,3.96
2022-12-03T05:47:49.638Z,4.01
2022-12-03T05:50:16.928Z,3.98
2022-12-03T05:52:44.606Z,4.04
2022-12-03T05:55:11.944Z,4.01
2022-12-03T05:57:40.687Z,3.97
2022-12-03T06:00:12.866Z,3.93
2022-12-03T06:02:40.578Z,3.96
2022-12-03T06:05:08.546Z,3.98
2022-12-03T06:07:35.841Z,3.96
2022-12-03T06:10:03.013Z,3.94
2022-12-03T06:12:30.710Z,3.95
2022-12-03T06:15:01.605Z,4.16
2022-12-03T06:17:28.775Z,4.35
2022-12-03T06:19:55.620Z,4.31
2022-12-03T06:22:22.831Z,4.55
2022-12-03T06:24:50.497Z,4.44
2022-12-03T06:27:18.235Z,4.31
2022-12-03T06:29:45.087Z,4.22
2022-12-03T06:32:13.624Z,4.21
2022-12-03T06:34:40.625Z,4.22
2022-12-03T06:37:07.920Z,4.19
2022-12-03T06:39:35.156Z,4.23
2022-12-03T06:42:02.537Z,4.27
2022-12-03T06:44:29.666Z,4.31
2022-12-03T06:46:56.868Z,4.31
2022-12-03T06:49:25.237Z,4.24
2022-12-03T06:51:52.289Z,4.21
2022-12-03T06:54:19.216Z,4.27
2022-12-03T06:57:02.433Z,4.24
2022-12-03T06:59:29.319Z,4.22
2022-12-03T07:01:56.548Z,4.31
2022-12-03T07:04:25.117Z,4.43
2022-12-03T07:06:52.236Z,4.52
2022-12-03T07:09:19.289Z,4.59
2022-12-03T07:11:46.367Z,4.63
2022-12-03T07:14:13.604Z,4.58
2022-12-03T07:16:43.379Z,4.55
2022-12-03T07:19:11.060Z,4.66
2022-12-03T07:21:39.815Z,4.68
2022-12-03T07:24:07.336Z,4.85
2022-12-03T07:26:35.127Z,4.89
2022-12-03T07:29:02.517Z,4.98
2022-12-03T07:31:29.842Z,5.00
2022-12-03T07:33:56.802Z,5.14
2022-12-03T07:36:23.993Z,5.22
2022-12-03T07:38:52.351Z,5.29
2022-12-03T07:41:19.502Z,5.34
2022-12-03T07:43:46.713Z,5.45
2022-12-03T07:46:13.945Z,5.43
2022-12-03T07:48:40.978Z,5.48
2022-12-03T07:51:10.473Z,5.43
2022-12-03T07:53:39.771Z,5.46
2022-12-03T07:56:08.821Z,5.55
2022-12-03T07:58:35.799Z,5.71
2022-12-03T08:01:03.125Z,5.78
2022-12-03T08:03:30.426Z,5.99
2022-12-03T08:05:57.576Z,6.16
2022-12-03T08:08:24.569Z,6.21
2022-12-03T08:10:51.801Z,6.29
2022-12-03T08:13:20.179Z,7.20
2022-12-03T08:15:47.481Z,7.94
2022-12-03T08:18:16.951Z,8.00
2022-12-03T08:20:46.194Z,7.57
2022-12-03T08:23:16.752Z,6.99
2022-12-03T08:25:45.186Z,6.67
2022-12-03T08:28:15.056Z,6.51
2022-12-03T08:30:44.884Z,6.49
2022-12-03T08:33:24.888Z,6.54
2022-12-03T08:35:52.143Z,6.65
2022-12-03T08:38:22.645Z,6.75
2022-12-03T08:40:51.638Z,6.77
2022-12-03T08:43:21.014Z,6.68
2022-12-03T08:45:51.014Z,6.71
2022-12-03T08:48:32.389Z,6.85
2022-12-03T08:51:04.578Z,6.94
2022-12-03T08:53:36.909Z,6.97
2022-12-03T08:56:09.210Z,6.89
2022-12-03T08:58:41.313Z,6.91
2022-12-03T09:01:30.638Z,7.01
2022-12-03T09:04:15.139Z,7.05
2022-12-03T09:06:42.715Z,7.18
2022-12-03T09:09:09.583Z,7.31
2022-12-03T09:11:36.900Z,7.39
2022-12-03T09:14:04.478Z,7.75
2022-12-03T09:16:33.057Z,7.93
2022-12-03T09:19:00.100Z,8.11
2022-12-03T09:21:27.277Z,8.06
2022-12-03T09:23:54.217Z,8.03
2022-12-03T09:26:21.386Z,7.91
2022-12-03T09:28:48.509Z,7.98
2022-12-03T09:31:15.935Z,8.03
2022-12-03T09:33:44.604Z,8.16
2022-12-03T09:36:11.844Z,8.34
2022-12-03T09:38:41.934Z,8.42
2022-12-03T09:41:13.608Z,8.42
2022-12-03T09:44:03.274Z,8.43
2022-12-03T09:46:29.305Z,8.55
2022-12-03T09:48:57.802Z,8.63
2022-12-03T09:51:31.511Z,8.84
2022-12-03T09:53:58.851Z,9.07
2022-12-03T09:56:26.103Z,9.25
2022-12-03T09:58:53.187Z,9.25
2022-12-03T10:01:20.521Z,9.24
2022-12-03T10:03:50.470Z,9.40
2022-12-03T10:06:21.193Z,9.64
2022-12-03T10:08:50.121Z,9.70
2022-12-03T10:11:19.072Z,9.73
2022-12-03T10:13:51.687Z,9.69
2022-12-03T10:16:20.949Z,9.65
2022-12-03T10:18:51.136Z,9.70
2022-12-03T10:21:23.834Z,9.69
2022-12-03T10:24:21.037Z,9.65
2022-12-03T10:26:49.801Z,9.87
2022-12-03T10:29:18.847Z,9.98
2022-12-03T10:31:46.660Z,9.98
2022-12-03T10:34:13.688Z,9.98
2022-12-03T10:36:42.293Z,10.04
2022-12-03T10:39:12.641Z,10.20
2022-12-03T10:41:41.370Z,10.32
2022-12-03T10:44:15.537Z,10.34
2022-12-03T10:46:44.035Z,10.15
2022-12-03T10:49:16.256Z,10.07
2022-12-03T10:51:46.410Z,10.04
2022-12-03T10:54:17.694Z,10.28
2022-12-03T10:56:46.015Z,10.47
2022-12-03T10:59:18.698Z,10.61
2022-12-03T11:01:46.132Z,10.80
2022-12-03T11:04:21.949Z,10.98
2022-12-03T11:06:50.948Z,11.08
2022-12-03T11:09:22.407Z,11.11
2022-12-03T11:11:50.260Z,11.00
2022-12-03T11:15:06.239Z,10.89
2022-12-03T11:17:44.730Z,10.78
2022-12-03T11:20:37.565Z,10.80
2022-12-03T11:23:10.541Z,10.73
2022-12-03T11:25:47.237Z,10.89
2022-12-03T11:28:53.160Z,11.05
2022-12-03T11:31:38.289Z,11.03
2022-12-03T11:34:48.540Z,10.98
2022-12-03T11:37:26.032Z,10.99
2022-12-03T11:40:36.180Z,10.97
2022-12-03T11:43:09.978Z,11.10
2022-12-03T11:45:38.331Z,11.26
2022-12-03T11:48:12.563Z,11.19
2022-12-03T11:50:43.147Z,11.28
2022-12-03T11:53:15.931Z,11.20
2022-12-03T11:55:47.503Z,11.24
2022-12-03T11:58:25.784Z,11.30
2022-12-03T12:00:54.740Z,11.30
2022-12-03T12:03:24.443Z,11.29
2022-12-03T12:06:03.546Z,11.35
2022-12-03T12:08:30.966Z,11.21
2022-12-03T12:10:58.401Z,11.06
2022-12-03T12:13:48.114Z,11.12
2022-12-03T12:16:37.215Z,11.21
2022-12-03T12:19:18.850Z,11.29
2022-12-03T12:21:50.756Z,11.32
2022-12-03T12:24:32.182Z,11.38
2022-12-03T12:27:01.607Z,11.43
2022-12-03T12:29:29.935Z,11.50
2022-12-03T12:32:06.735Z,11.50
2022-12-03T12:34:34.994Z,11.40
2022-12-03T12:37:03.041Z,11.30
2022-12-03T12:39:31.310Z,11.34
2022-12-03T12:41:59.321Z,11.39
2022-12-03T12:44:28.732Z,11.35
2022-12-03T12:47:12.482Z,11.35
2022-12-03T12:49:39.398Z,11.20
2022-12-03T12:52:14.234Z,10.99
2022-12-03T12:54:43.875Z,10.97
2022-12-03T12:57:13.823Z,11.06
2022-12-03T12:59:42.267Z,11.12
2022-12-03T13:02:37.423Z,11.09
2022-12-03T13:05:05.112Z,10.96
2022-12-03T13:07:32.460Z,10.72
2022-12-03T13:10:13.787Z,10.63
2022-12-03T13:12:41.045Z,10.65
2022-12-03T13:15:35.679Z,10.59
2022-12-03T13:18:20.179Z,10.59
2022-12-03T13:20:47.197Z,10.61
2022-12-03T13:23:26.471Z,10.69
2022-12-03T13:26:09.495Z,10.63
2022-12-03T13:28:41.765Z,10.70
2022-12-03T13:31:28.256Z,10.70
2022-12-03T13:33:56.771Z,10.80
2022-12-03T13:36:34.853Z,10.70
2022-12-03T13:39:09.514Z,10.47
2022-12-03T13:41:54.913Z,10.35
2022-12-03T13:44:22.339Z,10.34
2022-12-03T13:46:50.571Z,10.31
2022-12-03T13:49:21.165Z,10.22
2022-12-03T13:51:51.200Z,10.20
2022-12-03T13:54:23.881Z,10.25
2022-12-03T13:56:50.970Z,10.27
2022-12-03T13:59:22.985Z,10.26
2022-12-03T14:01:54.253Z,10.19
2022-12-03T14:04:21.621Z,10.12
2022-12-03T14:06:48.512Z,10.07
2022-12-03T14:09:15.817Z,10.04
2022-12-03T14:12:01.068Z,9.95
2022-12-03T14:14:28.310Z,9.90
2022-12-03T14:16:59.874Z,9.89
2022-12-03T14:19:27.460Z,9.84
2022-12-03T14:21:54.389Z,9.77
2022-12-03T14:24:21.889Z,9.75
2022-12-03T14:26:48.955Z,9.70
2022-12-03T14:29:16.264Z,9.65
2022-12-03T14:31:43.227Z,9.59
2022-12-03T14:34:11.998Z,9.64
2022-12-03T14:36:38.897Z,9.68
2022-12-03T14:39:06.096Z,9.72
2022-12-03T14:41:51.370Z,9.69
2022-12-03T14:44:21.784Z,9.63
2022-12-03T14:46:51.577Z,9.58
2022-12-03T14:49:22.603Z,9.54
2022-12-03T14:51:49.595Z,9.56
2022-12-03T14:54:16.896Z,9.57
2022-12-03T14:56:43.863Z,9.53
2022-12-03T14:59:13.495Z,9.50
2022-12-03T15:01:40.564Z,9.45
2022-12-03T15:04:10.120Z,9.40
2022-12-03T15:06:38.410Z,9.31
2022-12-03T15:09:05.753Z,9.23
2022-12-03T15:11:32.752Z,9.19
2022-12-03T15:14:00.216Z,9.17
2022-12-03T15:16:27.166Z,9.13
2022-12-03T15:18:58.011Z,9.00
2022-12-03T15:21:25.152Z,9.03
2022-12-03T15:23:53.743Z,9.03
2022-12-03T15:26:20.572Z,8.96
2022-12-03T15:28:48.557Z,8.87
2022-12-03T15:31:16.673Z,8.93
2022-12-03T15:33:44.176Z,8.95
2022-12-03T15:36:11.119Z,8.94
2022-12-03T15:38:38.352Z,8.86
2022-12-03T15:41:24.040Z,8.77
2022-12-03T15:43:52.684Z,8.75
2022-12-03T15:46:20.228Z,8.69
2022-12-03T15:48:47.778Z,8.78
2022-12-03T15:51:14.821Z,8.78
2022-12-03T15:53:43.988Z,8.74
2022-12-03T15:56:12.278Z,8.68
2022-12-03T15:58:40.493Z,8.61
2022-12-03T16:01:08.345Z,8.57
2022-12-03T16:03:36.474Z,8.58
2022-12-03T16:06:03.650Z,8.61
2022-12-03T16:08:30.957Z,8.61
2022-12-03T16:10:57.794Z,8.55
2022-12-03T16:13:26.597Z,8.60
2022-12-03T16:15:53.709Z,8.56
2022-12-03T16:18:20.979Z,8.55
2022-12-03T16:20:47.889Z,8.56
2022-12-03T16:23:15.049Z,8.48
2022-12-03T16:25:41.883Z,8.49
2022-12-03T16:28:09.131Z,8.53
2022-12-03T16:30:37.549Z,8.53
2022-12-03T16:33:04.804Z,8.51
2022-12-03T16:35:31.768Z,8.55
2022-12-03T16:37:59.028Z,8.56
2022-12-03T16:40:25.926Z,8.58
2022-12-03T16:42:53.058Z,8.54
2022-12-03T16:45:33.495Z,8.48
2022-12-03T16:48:02.773Z,8.41
2022-12-03T16:50:30.558Z,8.40
2022-12-03T16:52:57.892Z,8.38
2022-12-03T16:55:25.124Z,8.36
2022-12-03T16:57:52.346Z,8.29
2022-12-03T17:00:21.794Z,8.32
2022-12-03T17:02:49.299Z,8.28
2022-12-03T17:05:17.982Z,8.27
2022-12-03T17:07:45.199Z,8.26
2022-12-03T17:10:21.206Z,8.24
2022-12-03T17:15:42.769Z,8.01
2022-12-03T17:18:10.229Z,8.00
2022-12-03T17:20:38.615Z,7.86
2022-12-03T17:23:08.607Z,7.82
2022-12-03T17:25:35.742Z,7.77
2022-12-03T17:28:10.605Z,7.79
2022-12-03T17:30:39.623Z,7.75
2022-12-03T17:33:06.798Z,7.62
2022-12-03T17:35:33.805Z,7.49
2022-12-03T17:38:02.632Z,7.39
2022-12-03T17:40:29.508Z,7.35
2022-12-03T17:42:56.730Z,7.26
2022-12-03T17:45:26.442Z,7.01
2022-12-03T17:47:56.402Z,6.96
2022-12-03T17:50:23.286Z,6.89
2022-12-03T17:52:50.454Z,6.77
2022-12-03T17:55:29.756Z,6.80
2022-12-03T17:58:04.081Z,6.84
2022-12-03T18:00:33.884Z,6.72
2022-12-03T18:03:01.232Z,6.75
2022-12-03T18:05:30.158Z,6.71
2022-12-03T18:07:57.469Z,6.67
2022-12-03T18:10:27.550Z,6.63
2022-12-03T18:12:59.831Z,6.62
2022-12-03T18:15:28.633Z,6.67
2022-12-03T18:17:55.809Z,6.67
2022-12-03T18:20:22.642Z,6.60
2022-12-03T18:22:50.164Z,6.52
2022-12-03T18:25:18.025Z,6.49
2022-12-03T18:27:48.957Z,6.44
2022-12-03T18:30:16.175Z,6.39
2022-12-03T18:32:43.442Z,6.10
2022-12-03T18:35:10.352Z,6.23
2022-12-03T18:37:37.580Z,6.18
2022-12-03T18:40:12.807Z,6.20
2022-12-03T18:42:40.533Z,6.15
2022-12-03T18:45:13.165Z,6.06
2022-12-03T18:47:46.350Z,6.09
2022-12-03T18:50:16.310Z,6.05
2022-12-03T18:52:46.000Z,6.03
2022-12-03T18:55:18.311Z,6.04
2022-12-03T18:57:45.735Z,6.02
2022-12-03T19:00:19.243Z,5.94
2022-12-03T19:05:33.784Z,5.64
2022-12-03T19:08:01.597Z,5.62
2022-12-03T19:10:31.107Z,5.55
2022-12-03T19:12:58.571Z,5.59
2022-12-03T19:15:28.086Z,5.60
2022-12-03T19:17:55.248Z,5.57
2022-12-03T19:20:26.307Z,5.49
2022-12-03T19:22:53.467Z,5.38
2022-12-03T19:25:20.462Z,5.34
2022-12-03T19:27:50.100Z,5.15
2022-12-03T19:30:17.563Z,5.17
2022-12-03T19:32:46.461Z,5.11
2022-12-03T19:35:13.419Z,5.17
2022-12-03T19:37:40.623Z,5.19
2022-12-03T19:40:12.572Z,5.14
2022-12-03T19:42:40.328Z,5.11
2022-12-03T19:45:09.743Z,5.06
2022-12-03T19:47:40.184Z,5.04
2022-12-03T19:50:12.912Z,5.01
2022-12-03T19:52:47.202Z,4.87
2022-12-03T19:55:18.772Z,4.75
2022-12-03T19:57:46.831Z,4.73
2022-12-03T20:00:17.230Z,4.79
2022-12-03T20:02:47.887Z,4.80
2022-12-03T20:05:22.609Z,4.75
2022-12-03T20:07:54.714Z,4.75
2022-12-03T20:10:23.037Z,4.82
2022-12-03T20:12:52.153Z,4.77
2022-12-03T20:15:19.039Z,4.78
2022-12-03T20:17:49.410Z,4.82
2022-12-03T20:20:16.449Z,4.79
2022-12-03T20:22:46.338Z,4.72
2022-12-03T20:25:13.539Z,4.74
2022-12-03T20:27:40.703Z,4.82
2022-12-03T20:30:08.701Z,4.85
2022-12-03T20:32:39.358Z,4.74
2022-12-03T20:35:11.703Z,4.66
2022-12-03T20:37:39.009Z,4.57
2022-12-03T20:40:08.846Z,4.49
2022-12-03T20:42:36.144Z,4.55
2022-12-03T20:45:03.269Z,4.59
2022-12-03T20:47:30.513Z,4.56
2022-12-03T20:49:57.595Z,4.48
2022-12-03T20:52:24.952Z,4.48
2022-12-03T20:54:51.892Z,4.58
2022-12-03T20:57:20.484Z,4.66
2022-12-03T20:59:47.358Z,4.63
2022-12-03T21:02:14.694Z,4.66
2022-12-03T21:04:41.807Z,4.67
2022-12-03T21:07:09.056Z,4.65
2022-12-03T21:09:35.946Z,4.60
2022-12-03T21:12:03.269Z,4.51
2022-12-03T21:14:32.172Z,4.45
2022-12-03T21:17:08.307Z,4.46
2022-12-03T21:19:35.684Z,4.44
2022-12-03T21:22:02.872Z,4.46
2022-12-03T21:24:30.026Z,4.48
2022-12-03T21:26:57.255Z,4.47
2022-12-03T21:29:24.112Z,4.50
2022-12-03T21:31:52.652Z,4.49
2022-12-03T21:34:22.543Z,4.54
2022-12-03T21:36:49.700Z,4.47
2022-12-03T21:39:16.654Z,4.39
2022-12-03T21:42:18.774Z,4.38
2022-12-03T21:44:30.981Z,4.30
2022-12-03T21:47:09.509Z,4.33
2022-12-03T21:49:40.825Z,4.42
2022-12-03T21:52:07.949Z,4.46
2022-12-03T21:54:35.021Z,4.49
2022-12-03T21:57:02.127Z,4.52
2022-12-03T21:59:31.801Z,4.50
2022-12-03T22:02:03.206Z,4.47
2022-12-03T22:04:32.945Z,4.45
2022-12-03T22:07:00.187Z,4.37
2022-12-03T22:09:27.188Z,4.31
2022-12-03T22:11:56.887Z,4.29
2022-12-03T22:14:24.259Z,4.24
2022-12-03T22:16:54.291Z,4.21
2022-12-03T22:19:23.785Z,4.26
2022-12-03T22:21:51.174Z,4.30
2022-12-03T22:24:19.397Z,4.31
2022-12-03T22:26:47.450Z,4.29
2022-12-03T22:29:15.932Z,4.24
2022-12-03T22:31:44.529Z,4.23
2022-12-03T22:34:11.462Z,4.19
2022-12-03T22:36:43.322Z,4.09
2022-12-03T22:39:13.429Z,4.08
2022-12-03T22:41:43.805Z,4.12
2022-12-03T22:44:10.955Z,4.14
2022-12-03T22:46:38.433Z,4.13
2022-12-03T22:49:07.631Z,4.20
2022-12-03T22:51:37.352Z,4.27
2022-12-03T22:54:06.363Z,4.31
2022-12-03T22:56:33.677Z,4.28
2022-12-03T22:59:00.778Z,4.21
2022-12-03T23:01:30.677Z,4.13
2022-12-03T23:03:57.852Z,4.05
2022-12-03T23:06:25.294Z,3.95
2022-12-03T23:08:52.446Z,3.95
2022-12-03T23:11:21.369Z,3.97
2022-12-03T23:13:48.505Z,4.01
2022-12-03T23:16:20.659Z,4.04
2022-12-03T23:18:47.595Z,4.10
2022-12-03T23:21:15.977Z,4.10
2022-12-03T23:23:43.927Z,4.06
2022-12-03T23:26:13.212Z,4.02
2022-12-03T23:28:43.220Z,4.03
2022-12-03T23:31:17.039Z,3.99
2022-12-03T23:33:44.640Z,3.97
2022-12-03T23:36:12.504Z,4.00
2022-12-03T23:38:39.374Z,4.00
2022-12-03T23:41:07.768Z,4.02
2022-12-03T23:43:34.923Z,4.09
2022-12-03T23:46:05.012Z,4.11
2022-12-03T23:48:32.035Z,4.10
2022-12-03T23:50:59.384Z,4.01
2022-12-03T23:53:26.528Z,4.00
2022-12-03T23:55:53.673Z,4.03
2022-12-03T23:58:20.583Z,4.03
